Condon, Oregon
Current Conditions -  °F | °C
As of 3:53 AM on Sunday 23 Nov 2014 (Local Time) from KDLS Reporting Station
Overcast Overcast  
Wind Chill: 45°   Ceiling: 4600
Heat Index: 49°   Visibility: 10mi
Dew Point: 40°   Wind: 10mph
Humidity: 71%   Direction: 320°NW
Pressure: 30.22"   Gusts: NA
Location:  45.23°N, 120.19°W
Report Text: KDLS 231153Z AUTO 32009KT 10SM OVC046 09/04 A3022 RMK AO2 SLP235 70010 T00940044 10100 20078 51013 $
Loading
Personal Weather Stations






























Interactive Weather Map New forecast layout! Learn more

10-Day Weather Forecast

Advertisements
Track Severe Weather on mobile